Time;durP1;ratioP1;P1;durP2;ratioP2;P2;SDS_P1;SDS_P2;PMS_P1;PMS_P2;Temp;Humidity;BMP_temperature;BMP_pressure;BME280_temperature;BME280_humidity;BME280_pressure;Samples;Min_cycle;Max_cycle;Signal;HPM_P1;HPM_P2
2022/10/12 00:01:20;;;;;;;0.00;0.00;;;8.30;99.90;;;;;;5029760;28;20614;-79
2022/10/12 00:03:46;;;;;;;0.00;0.00;;;8.30;99.90;;;;;;5030183;28;20196;-79
2022/10/12 00:06:25;;;;;;;0.00;0.00;;;8.20;99.90;;;;;;5031698;28;20735;-79
2022/10/12 00:08:53;;;;;;;0.10;0.10;;;8.20;99.90;;;;;;5030107;28;20219;-78
2022/10/12 00:11:25;;;;;;;0.10;0.10;;;8.20;99.90;;;;;;5032459;28;20189;-79
2022/10/12 00:13:51;;;;;;;0.00;0.00;;;8.20;99.90;;;;;;5028310;28;20253;-79
2022/10/12 00:16:19;;;;;;;0.10;0.10;;;8.20;99.90;;;;;;5030611;28;20197;-79
2022/10/12 00:18:52;;;;;;;0.10;0.10;;;8.20;99.90;;;;;;5028668;28;20226;-79
2022/10/12 00:21:17;;;;;;;0.10;0.10;;;8.20;99.90;;;;;;5030700;28;20194;-79
2022/10/12 00:23:43;;;;;;;0.10;0.10;;;8.20;99.90;;;;;;5030625;28;20198;-79
2022/10/12 00:26:22;;;;;;;0.10;0.10;;;8.10;99.90;;;;;;5029554;28;20625;-79
2022/10/12 00:28:48;;;;;;;0.07;0.07;;;8.10;99.90;;;;;;5030191;28;20218;-80
2022/10/12 00:31:17;;;;;;;0.10;0.10;;;8.10;99.90;;;;;;5031966;28;20196;-79
2022/10/12 00:33:43;;;;;;;0.00;0.00;;;8.00;99.90;;;;;;5045988;28;20263;-79
2022/10/12 00:36:19;;;;;;;0.10;0.10;;;8.00;99.90;;;;;;5030990;28;20238;-79
2022/10/12 00:38:45;;;;;;;0.00;0.00;;;8.00;99.90;;;;;;5030082;28;20233;-79
2022/10/12 00:41:12;;;;;;;0.10;0.10;;;8.00;99.90;;;;;;5030056;28;20189;-79
2022/10/12 00:43:40;;;;;;;0.00;0.00;;;8.00;99.90;;;;;;5029675;28;20812;-79
2022/10/12 00:46:21;;;;;;;0.10;0.10;;;8.00;99.90;;;;;;5032122;28;20299;-79
2022/10/12 00:48:52;;;;;;;0.07;0.07;;;8.00;99.90;;;;;;5029584;28;20243;-79
2022/10/12 00:51:19;;;;;;;0.10;0.10;;;8.00;99.90;;;;;;5030361;28;20298;-79
2022/10/12 00:53:49;;;;;;;0.00;0.00;;;8.00;99.90;;;;;;5028360;28;20302;-79
2022/10/12 00:56:20;;;;;;;0.10;0.10;;;8.00;99.90;;;;;;5032119;28;20194;-79
2022/10/12 00:58:48;;;;;;;0.10;0.10;;;8.00;99.90;;;;;;5029692;28;20213;-79
2022/10/12 01:01:14;;;;;;;0.10;0.10;;;8.00;99.90;;;;;;5032016;28;20188;-79
2022/10/12 01:03:41;;;;;;;0.10;0.10;;;7.70;99.90;;;;;;5029336;28;20182;-79
2022/10/12 01:06:07;;;;;;;0.10;0.10;;;7.80;99.90;;;;;;5028636;28;20186;-78
2022/10/12 01:08:33;;;;;;;0.10;0.10;;;7.80;99.90;;;;;;5030557;28;20247;-79
2022/10/12 01:10:58;;;;;;;0.10;0.10;;;7.80;99.90;;;;;;5031949;28;20225;-79
2022/10/12 01:13:24;;;;;;;0.10;0.10;;;7.90;99.90;;;;;;5030709;28;20270;-79
2022/10/12 01:16:03;;;;;;;0.10;0.10;;;7.90;99.90;;;;;;5032137;28;20263;-79
2022/10/12 01:19:16;;;;;;;0.00;0.00;;;8.00;99.90;;;;;;5035601;28;20685;-79
2022/10/12 01:21:49;;;;;;;0.07;0.07;;;8.00;99.90;;;;;;5037219;28;20284;-79
2022/10/12 01:24:38;;;;;;;0.10;0.10;;;8.00;99.90;;;;;;5035441;28;20199;-79
2022/10/12 01:27:31;;;;;;;0.10;0.10;;;8.00;99.90;;;;;;5035526;28;20239;-79
2022/10/12 01:30:11;;;;;;;0.00;0.00;;;7.80;99.90;;;;;;5034564;28;20208;-78
2022/10/12 01:32:59;;;;;;;0.10;0.10;;;7.90;99.90;;;;;;5035037;28;20187;-79
2022/10/12 01:35:30;;;;;;;0.10;0.10;;;7.90;99.90;;;;;;5034595;28;20206;-79
2022/10/12 01:38:27;;;;;;;0.10;0.10;;;8.00;99.90;;;;;;5033818;28;20176;-79
2022/10/12 01:41:06;;;;;;;0.10;0.10;;;8.00;99.90;;;;;;5034036;28;20190;-79
2022/10/12 01:43:37;;;;;;;0.10;0.10;;;7.80;99.90;;;;;;5032641;28;20184;-79
2022/10/12 01:46:15;;;;;;;0.10;0.10;;;7.90;99.90;;;;;;5032463;28;20191;-79
2022/10/12 01:48:43;;;;;;;0.10;0.10;;;7.90;99.90;;;;;;5032254;28;20214;-79
2022/10/12 01:51:11;;;;;;;0.10;0.10;;;7.90;99.90;;;;;;5034184;28;20657;-79
2022/10/12 01:53:41;;;;;;;0.07;0.07;;;7.90;99.90;;;;;;5015568;28;20193;-79
2022/10/12 01:56:12;;;;;;;0.10;0.10;;;7.90;99.90;;;;;;5032334;28;20196;-79
2022/10/12 01:58:44;;;;;;;0.00;0.00;;;7.90;99.90;;;;;;5031145;28;20204;-79
2022/10/12 02:01:31;;;;;;;0.10;0.10;;;8.00;99.90;;;;;;5033571;28;20190;-80
2022/10/12 02:04:00;;;;;;;0.10;0.10;;;7.90;99.90;;;;;;5033304;28;20626;-79
2022/10/12 02:06:52;;;;;;;0.00;0.00;;;7.80;99.90;;;;;;5033520;28;20189;-79
2022/10/12 02:09:27;;;;;;;0.10;0.10;;;7.60;99.90;;;;;;5034304;28;20586;-79
2022/10/12 02:11:57;;;;;;;0.10;0.10;;;7.70;99.90;;;;;;5034578;28;20188;-79
2022/10/12 02:14:28;;;;;;;0.10;0.10;;;7.70;99.90;;;;;;5032612;28;20201;-79
2022/10/12 02:16:59;;;;;;;0.00;0.00;;;7.70;99.90;;;;;;5031012;28;20647;-79
2022/10/12 02:19:29;;;;;;;0.00;0.00;;;7.60;99.90;;;;;;5033419;28;20216;-79
2022/10/12 02:21:59;;;;;;;0.10;0.10;;;7.60;99.90;;;;;;5032082;28;20175;-79
2022/10/12 02:24:27;;;;;;;0.10;0.10;;;7.60;99.90;;;;;;5033559;28;20195;-79
2022/10/12 02:26:55;;;;;;;0.10;0.10;;;7.70;99.90;;;;;;5030130;28;20200;-79
2022/10/12 02:29:25;;;;;;;0.10;0.10;;;7.70;99.90;;;;;;5033533;28;20202;-79
2022/10/12 02:31:58;;;;;;;0.10;0.10;;;7.70;99.90;;;;;;5031423;28;20188;-79
2022/10/12 02:34:54;;;;;;;0.10;0.10;;;7.70;99.90;;;;;;5030714;28;20219;-79
2022/10/12 02:37:42;;;;;;;0.00;0.00;;;7.70;99.90;;;;;;5030823;28;20645;-79
2022/10/12 02:40:36;;;;;;;0.10;0.10;;;7.70;99.90;;;;;;5031305;28;20684;-79
2022/10/12 02:43:14;;;;;;;0.00;0.00;;;7.70;99.90;;;;;;5032592;28;20193;-80
2022/10/12 02:45:42;;;;;;;0.00;0.00;;;7.70;99.90;;;;;;5031809;28;20185;-79
2022/10/12 02:48:12;;;;;;;0.10;0.10;;;7.60;99.90;;;;;;5032927;28;20188;-78
2022/10/12 02:50:38;;;;;;;0.00;0.00;;;7.50;99.90;;;;;;5029525;28;20285;-79
2022/10/12 02:53:05;;;;;;;0.10;0.10;;;7.50;99.90;;;;;;5031648;28;20183;-79
2022/10/12 02:55:31;;;;;;;0.00;0.00;;;7.40;99.90;;;;;;5030766;28;20960;-79
2022/10/12 02:57:56;;;;;;;0.00;0.00;;;7.50;99.90;;;;;;5030948;28;20204;-79
2022/10/12 03:00:22;;;;;;;0.10;0.10;;;7.60;99.90;;;;;;5032510;28;20850;-79
2022/10/12 03:02:47;;;;;;;0.10;0.10;;;7.50;99.90;;;;;;5031475;28;20662;-79
2022/10/12 03:05:13;;;;;;;0.10;0.10;;;7.60;99.90;;;;;;5028782;28;20273;-79
2022/10/12 03:07:39;;;;;;;0.10;0.10;;;7.50;99.90;;;;;;5026953;28;20218;-79
2022/10/12 03:10:05;;;;;;;0.00;0.00;;;7.60;99.90;;;;;;5031565;28;20210;-79
2022/10/12 03:12:30;;;;;;;0.10;0.10;;;7.60;99.90;;;;;;5032608;28;20208;-80
2022/10/12 03:14:56;;;;;;;0.10;0.10;;;7.70;99.90;;;;;;5032946;28;20726;-79
2022/10/12 03:17:22;;;;;;;0.10;0.10;;;7.60;99.90;;;;;;5032872;28;20663;-79
2022/10/12 03:19:47;;;;;;;0.00;0.00;;;7.70;99.90;;;;;;5029275;28;20214;-79
2022/10/12 03:22:13;;;;;;;0.10;0.10;;;7.70;99.90;;;;;;5031930;28;20195;-79
2022/10/12 03:24:38;;;;;;;0.10;0.10;;;7.70;99.90;;;;;;5030443;28;20230;-79
2022/10/12 03:27:04;;;;;;;0.10;0.10;;;7.70;99.90;;;;;;5033229;28;20175;-79
2022/10/12 03:29:29;;;;;;;0.10;0.10;;;7.70;99.90;;;;;;5032534;28;20218;-79
2022/10/12 03:31:55;;;;;;;0.10;0.10;;;7.50;99.90;;;;;;5031065;28;20248;-79
2022/10/12 03:34:20;;;;;;;0.10;0.10;;;7.50;99.90;;;;;;5030187;28;20212;-79
2022/10/12 03:36:46;;;;;;;0.10;0.10;;;7.50;99.90;;;;;;5030408;28;20186;-79
2022/10/12 03:39:11;;;;;;;0.10;0.10;;;7.60;99.90;;;;;;5029234;28;20233;-79
2022/10/12 03:41:37;;;;;;;0.00;0.00;;;7.50;99.90;;;;;;5030717;28;20191;-79
2022/10/12 03:44:03;;;;;;;0.07;0.07;;;7.50;99.90;;;;;;5030563;28;20185;-79
2022/10/12 03:46:28;;;;;;;0.00;0.00;;;7.50;99.90;;;;;;5030766;28;20198;-79
2022/10/12 03:48:54;;;;;;;0.00;0.00;;;7.50;99.90;;;;;;5028001;28;20217;-79
2022/10/12 03:51:19;;;;;;;0.00;0.00;;;7.50;99.90;;;;;;5030500;28;20210;-79
2022/10/12 03:53:45;;;;;;;0.00;0.00;;;7.50;99.90;;;;;;5030620;28;20208;-78
2022/10/12 03:56:11;;;;;;;0.10;0.10;;;7.50;99.90;;;;;;5028859;28;20210;-80
2022/10/12 03:58:36;;;;;;;0.10;0.10;;;7.50;99.90;;;;;;5027772;28;20203;-79
2022/10/12 04:01:02;;;;;;;0.10;0.10;;;7.50;99.90;;;;;;5030432;28;20175;-79
2022/10/12 04:03:28;;;;;;;0.10;0.10;;;7.50;99.90;;;;;;5028021;28;20232;-79
2022/10/12 04:05:57;;;;;;;0.10;0.10;;;7.40;99.90;;;;;;5028947;28;20176;-79
2022/10/12 04:08:25;;;;;;;0.10;0.10;;;7.40;99.90;;;;;;5030806;28;20619;-79
2022/10/12 04:10:51;;;;;;;0.10;0.10;;;7.40;99.90;;;;;;5027679;28;20279;-79
2022/10/12 04:13:17;;;;;;;0.00;0.00;;;7.40;99.90;;;;;;5030111;28;20284;-79
2022/10/12 04:15:42;;;;;;;0.00;0.00;;;7.40;99.90;;;;;;5028006;28;20196;-79
2022/10/12 04:18:08;;;;;;;0.10;0.10;;;7.40;99.90;;;;;;5029292;28;20186;-79
2022/10/12 04:20:34;;;;;;;0.10;0.10;;;7.40;99.90;;;;;;5028192;28;20177;-79
2022/10/12 04:22:59;;;;;;;0.10;0.10;;;7.40;99.90;;;;;;5029806;28;20187;-79
2022/10/12 04:25:25;;;;;;;0.00;0.00;;;7.40;99.90;;;;;;5030155;28;20270;-79
2022/10/12 04:27:50;;;;;;;0.10;0.10;;;7.40;99.90;;;;;;5028350;28;20190;-78
2022/10/12 04:30:16;;;;;;;0.10;0.10;;;7.40;99.90;;;;;;5029138;28;20206;-79
2022/10/12 04:32:42;;;;;;;0.10;0.10;;;7.40;99.90;;;;;;5029916;28;20822;-79
2022/10/12 04:35:08;;;;;;;0.10;0.10;;;7.40;99.90;;;;;;5031646;28;20212;-79
2022/10/12 04:37:33;;;;;;;0.10;0.10;;;7.40;99.90;;;;;;5030676;28;20206;-79
2022/10/12 04:39:59;;;;;;;0.10;0.10;;;7.30;99.90;;;;;;5026289;28;20206;-78
2022/10/12 04:42:25;;;;;;;0.10;0.10;;;7.30;99.90;;;;;;5030253;28;20721;-78
2022/10/12 04:44:51;;;;;;;0.10;0.10;;;7.30;99.90;;;;;;5028894;28;20696;-79
2022/10/12 04:47:16;;;;;;;0.10;0.10;;;7.30;99.90;;;;;;5031875;28;20194;-79
2022/10/12 04:49:42;;;;;;;0.00;0.00;;;7.30;99.90;;;;;;5028557;28;20213;-80
2022/10/12 04:52:08;;;;;;;0.00;0.00;;;7.30;99.90;;;;;;5030555;28;20305;-78
2022/10/12 04:54:33;;;;;;;0.10;0.10;;;7.30;99.90;;;;;;5031716;28;20217;-79
2022/10/12 04:56:59;;;;;;;0.07;0.07;;;7.30;99.90;;;;;;5031816;28;20241;-79
2022/10/12 04:59:24;;;;;;;0.10;0.10;;;7.10;99.90;;;;;;5032855;28;20329;-79
2022/10/12 05:01:50;;;;;;;0.10;0.10;;;7.10;99.90;;;;;;5035987;28;20182;-79
2022/10/12 05:04:15;;;;;;;0.10;0.10;;;7.10;99.90;;;;;;5049665;28;20181;-79
2022/10/12 05:06:41;;;;;;;0.10;0.10;;;7.10;99.90;;;;;;5033858;28;20194;-79
2022/10/12 05:09:07;;;;;;;0.10;0.10;;;7.10;99.90;;;;;;5032023;28;20214;-79
2022/10/12 05:11:32;;;;;;;0.10;0.10;;;7.10;99.90;;;;;;5034250;28;20195;-79
2022/10/12 05:13:58;;;;;;;0.00;0.00;;;7.10;99.90;;;;;;5032571;28;20258;-79
2022/10/12 05:16:24;;;;;;;0.10;0.10;;;7.10;99.90;;;;;;5032641;28;20194;-79
2022/10/12 05:18:49;;;;;;;0.00;0.00;;;7.10;99.90;;;;;;5032717;28;20218;-79
2022/10/12 05:21:15;;;;;;;0.00;0.00;;;7.10;99.90;;;;;;5031912;28;20254;-79
2022/10/12 05:23:41;;;;;;;0.00;0.00;;;7.10;99.90;;;;;;5031798;28;20182;-79
2022/10/12 05:26:07;;;;;;;0.10;0.10;;;7.10;99.90;;;;;;5032280;28;20196;-79
2022/10/12 05:28:32;;;;;;;0.00;0.00;;;7.10;99.90;;;;;;5035737;28;20206;-79
2022/10/12 05:30:58;;;;;;;0.00;0.00;;;7.10;99.90;;;;;;5031886;28;20762;-78
2022/10/12 05:33:23;;;;;;;0.00;0.00;;;7.10;99.90;;;;;;5034352;28;20298;-79
2022/10/12 05:35:49;;;;;;;0.03;0.03;;;7.10;99.90;;;;;;5033806;28;20224;-79
2022/10/12 05:38:15;;;;;;;0.00;0.00;;;7.10;99.90;;;;;;5033755;28;20191;-79
2022/10/12 05:40:40;;;;;;;0.10;0.10;;;7.10;99.90;;;;;;5030416;28;20189;-79
2022/10/12 05:43:06;;;;;;;0.00;0.00;;;7.10;99.90;;;;;;5032256;28;20870;-79
2022/10/12 05:45:32;;;;;;;0.00;0.00;;;7.00;99.90;;;;;;5032557;28;20596;-78
2022/10/12 05:47:57;;;;;;;0.00;0.00;;;7.00;99.90;;;;;;5033974;28;20290;-79
2022/10/12 05:50:23;;;;;;;0.10;0.10;;;6.90;99.90;;;;;;5030824;28;20726;-79
2022/10/12 05:52:48;;;;;;;0.00;0.00;;;7.00;99.90;;;;;;5031938;28;20192;-79
2022/10/12 05:55:14;;;;;;;0.10;0.10;;;7.10;99.90;;;;;;5031099;28;20207;-79
2022/10/12 05:57:39;;;;;;;0.03;0.03;;;7.10;99.90;;;;;;5031171;28;20197;-79
2022/10/12 06:00:07;;;;;;;0.10;0.10;;;7.10;99.90;;;;;;5032406;28;20704;-79
2022/10/12 06:02:33;;;;;;;0.10;0.10;;;7.20;99.90;;;;;;5033251;28;20294;-79
2022/10/12 06:04:58;;;;;;;0.10;0.10;;;7.30;99.90;;;;;;5030510;28;20272;-79
2022/10/12 06:07:24;;;;;;;0.00;0.00;;;7.40;99.90;;;;;;5032558;28;20191;-78
2022/10/12 06:09:50;;;;;;;0.10;0.10;;;7.40;99.90;;;;;;5031963;28;20234;-79
2022/10/12 06:12:16;;;;;;;0.10;0.10;;;7.40;99.90;;;;;;5033327;28;20653;-79
2022/10/12 06:14:41;;;;;;;0.10;0.10;;;7.50;99.90;;;;;;5031210;28;20203;-78
2022/10/12 06:17:08;;;;;;;0.10;0.10;;;7.60;99.90;;;;;;5033331;28;20187;-79
2022/10/12 06:19:34;;;;;;;0.07;0.07;;;7.70;99.90;;;;;;5032861;28;20195;-79
2022/10/12 06:22:00;;;;;;;0.10;0.10;;;7.70;99.90;;;;;;5027460;28;20185;-79
2022/10/12 06:24:26;;;;;;;0.10;0.10;;;7.70;99.90;;;;;;5031207;28;20839;-80
2022/10/12 06:26:51;;;;;;;0.00;0.00;;;7.90;99.90;;;;;;5034951;28;21450;-81
2022/10/12 06:29:17;;;;;;;0.10;0.10;;;7.90;99.90;;;;;;5037345;28;20221;-81
2022/10/12 06:31:43;;;;;;;0.03;0.03;;;7.90;99.90;;;;;;5030729;28;20867;-81
2022/10/12 06:34:08;;;;;;;0.00;0.00;;;7.80;99.90;;;;;;5030950;28;20228;-81
2022/10/12 06:36:34;;;;;;;0.10;0.10;;;7.80;99.90;;;;;;5034529;28;20221;-81
2022/10/12 06:38:59;;;;;;;0.00;0.00;;;7.80;99.90;;;;;;5027186;28;20215;-81
2022/10/12 06:41:25;;;;;;;0.10;0.10;;;8.00;99.90;;;;;;5028787;28;20193;-81
2022/10/12 06:43:51;;;;;;;0.10;0.10;;;8.20;99.90;;;;;;5033866;28;20181;-80
2022/10/12 06:46:16;;;;;;;0.10;0.10;;;8.40;99.90;;;;;;5034114;28;20195;-80
2022/10/12 06:48:42;;;;;;;0.10;0.10;;;8.50;99.90;;;;;;5035530;28;21224;-80
2022/10/12 06:51:07;;;;;;;0.10;0.10;;;8.70;99.90;;;;;;5033341;28;20551;-80
2022/10/12 06:53:33;;;;;;;0.00;0.00;;;8.90;99.90;;;;;;5030067;28;20575;-80
2022/10/12 06:56:04;;;;;;;0.10;0.10;;;9.00;99.90;;;;;;5036148;28;20300;-80
2022/10/12 06:58:29;;;;;;;0.03;0.03;;;9.20;99.90;;;;;;5031861;28;20718;-80
2022/10/12 07:00:55;;;;;;;0.03;0.03;;;9.30;99.90;;;;;;5030151;28;20222;-80
2022/10/12 07:03:21;;;;;;;0.10;0.10;;;9.20;99.90;;;;;;5032258;28;20188;-80
2022/10/12 07:05:46;;;;;;;0.10;0.10;;;9.20;99.90;;;;;;5031355;28;20265;-79
2022/10/12 07:08:12;;;;;;;0.10;0.10;;;9.10;99.90;;;;;;5033368;28;20680;-79
2022/10/12 07:10:37;;;;;;;0.10;0.10;;;9.10;99.90;;;;;;5031576;28;20189;-80
2022/10/12 07:13:03;;;;;;;0.00;0.00;;;9.10;99.90;;;;;;5033317;28;20186;-80
2022/10/12 07:15:29;;;;;;;0.00;0.00;;;9.10;99.90;;;;;;5033105;28;20903;-80
2022/10/12 07:17:54;;;;;;;0.10;0.10;;;9.20;99.90;;;;;;5031771;28;20188;-80
2022/10/12 07:20:20;;;;;;;0.10;0.10;;;9.20;99.90;;;;;;5035882;28;20224;-80
2022/10/12 07:22:46;;;;;;;0.07;0.07;;;9.30;99.90;;;;;;5032033;28;20187;-80
2022/10/12 07:25:12;;;;;;;0.00;0.00;;;9.40;99.90;;;;;;5028816;28;20190;-79
2022/10/12 07:27:37;;;;;;;0.10;0.10;;;9.40;99.90;;;;;;5031276;28;20193;-80
2022/10/12 07:30:04;;;;;;;0.10;0.10;;;9.50;99.90;;;;;;5030970;28;20208;-80
2022/10/12 07:32:29;;;;;;;0.10;0.10;;;9.70;99.90;;;;;;5027519;28;20219;-80
2022/10/12 07:34:56;;;;;;;0.00;0.00;;;9.90;99.90;;;;;;5028870;28;20236;-80
2022/10/12 07:37:22;;;;;;;0.00;0.00;;;10.00;99.90;;;;;;5031162;28;20255;-80
2022/10/12 07:39:48;;;;;;;0.10;0.10;;;10.00;99.90;;;;;;5033917;28;20785;-80
2022/10/12 07:42:13;;;;;;;0.10;0.10;;;10.10;99.90;;;;;;5031653;28;20216;-80
2022/10/12 07:44:39;;;;;;;0.10;0.10;;;10.30;99.90;;;;;;5028994;28;20228;-79
2022/10/12 07:47:05;;;;;;;0.00;0.00;;;10.40;99.90;;;;;;5027515;28;20188;-79
2022/10/12 07:49:30;;;;;;;0.00;0.00;;;10.50;99.90;;;;;;5028417;28;20304;-79
2022/10/12 07:51:56;;;;;;;0.10;0.10;;;10.60;99.90;;;;;;5025305;28;20215;-80
2022/10/12 07:54:22;;;;;;;0.10;0.10;;;10.80;99.90;;;;;;5026695;28;20751;-80
2022/10/12 07:56:47;;;;;;;0.10;0.10;;;11.00;99.90;;;;;;5029302;28;20198;-79
2022/10/12 07:59:14;;;;;;;0.10;0.10;;;11.20;99.90;;;;;;5030958;28;20228;-79
2022/10/12 08:01:39;;;;;;;0.00;0.00;;;11.40;99.90;;;;;;5028323;28;20185;-80
2022/10/12 08:04:05;;;;;;;0.10;0.10;;;11.60;99.90;;;;;;5029829;28;20190;-80
2022/10/12 08:06:32;;;;;;;0.00;0.00;;;11.80;99.90;;;;;;5030746;28;20193;-79
2022/10/12 08:08:59;;;;;;;0.00;0.00;;;12.00;99.90;;;;;;5029228;28;20212;-80
2022/10/12 08:11:26;;;;;;;0.10;0.10;;;12.20;99.90;;;;;;5029477;28;20193;-80
2022/10/12 08:13:52;;;;;;;0.10;0.10;;;12.30;99.90;;;;;;5029362;28;20196;-80
2022/10/12 08:16:19;;;;;;;0.10;0.10;;;12.30;99.90;;;;;;5031791;28;20196;-79
2022/10/12 08:18:45;;;;;;;0.03;0.03;;;12.40;99.90;;;;;;5029662;28;20205;-80
2022/10/12 08:21:13;;;;;;;0.10;0.10;;;12.50;99.90;;;;;;5030495;28;20195;-80
2022/10/12 08:23:39;;;;;;;0.10;0.10;;;12.50;99.90;;;;;;5032478;28;20255;-80
2022/10/12 08:26:05;;;;;;;0.00;0.00;;;12.60;99.90;;;;;;5031497;28;20189;-80
2022/10/12 08:28:32;;;;;;;0.00;0.00;;;12.70;99.90;;;;;;5029421;28;20201;-79
2022/10/12 08:30:57;;;;;;;0.00;0.00;;;12.80;99.90;;;;;;5031846;28;20199;-83
2022/10/12 08:33:23;;;;;;;0.10;0.10;;;13.00;99.90;;;;;;5031667;28;20545;-82
2022/10/12 08:35:49;;;;;;;0.10;0.10;;;13.10;99.90;;;;;;5035384;28;20773;-81
2022/10/12 08:38:15;;;;;;;0.10;0.10;;;13.30;99.90;;;;;;5038301;28;20281;-80
2022/10/12 08:40:59;;;;;;;0.10;0.10;;;13.50;99.90;;;;;;5038675;28;20191;-82
2022/10/12 08:43:33;;;;;;;0.10;0.10;;;13.60;99.90;;;;;;5032379;28;20262;-80
2022/10/12 08:46:02;;;;;;;0.10;0.10;;;13.60;99.90;;;;;;5033074;28;20184;-80
2022/10/12 08:48:51;;;;;;;0.10;0.10;;;13.70;99.90;;;;;;5035810;28;20217;-80
2022/10/12 08:51:22;;;;;;;0.10;0.10;;;13.80;99.90;;;;;;5015312;28;20296;-79
2022/10/12 08:53:56;;;;;;;0.10;0.10;;;13.80;99.90;;;;;;5033941;28;21222;-80
2022/10/12 08:56:22;;;;;;;0.10;0.10;;;13.90;99.90;;;;;;5032640;28;20178;-80
2022/10/12 08:58:50;;;;;;;0.10;0.10;;;14.00;99.90;;;;;;5033494;28;20210;-79
2022/10/12 09:01:35;;;;;;;0.10;0.10;;;14.10;99.90;;;;;;5034110;28;20182;-79
2022/10/12 09:04:38;;;;;;;0.10;0.10;;;14.30;99.90;;;;;;5035427;28;20674;-79
2022/10/12 09:07:18;;;;;;;0.10;0.10;;;14.40;99.90;;;;;;5034732;28;20305;-79
2022/10/12 09:10:05;;;;;;;0.00;0.00;;;14.50;99.90;;;;;;5032313;28;20650;-79
2022/10/12 09:12:42;;;;;;;0.10;0.10;;;14.70;99.90;;;;;;5032766;28;20177;-79
2022/10/12 09:15:23;;;;;;;0.10;0.10;;;14.90;99.90;;;;;;5031913;28;20658;-79
2022/10/12 09:17:54;;;;;;;0.10;0.10;;;15.00;99.90;;;;;;5031853;28;20190;-79
2022/10/12 09:20:27;;;;;;;0.10;0.10;;;15.10;99.90;;;;;;5031316;28;20198;-79
2022/10/12 09:22:58;;;;;;;0.10;0.10;;;15.30;99.90;;;;;;5033593;28;20209;-79
2022/10/12 09:25:26;;;;;;;0.10;0.10;;;15.30;99.90;;;;;;5031457;28;20191;-79
2022/10/12 09:27:53;;;;;;;0.10;0.10;;;15.40;99.90;;;;;;5031437;28;20192;-79
2022/10/12 09:30:19;;;;;;;0.10;0.10;;;15.50;99.90;;;;;;5032962;28;20214;-79
2022/10/12 09:33:20;;;;;;;0.10;0.10;;;15.60;99.90;;;;;;5034298;28;20192;-79
2022/10/12 09:35:46;;;;;;;0.10;0.10;;;15.70;99.90;;;;;;5031542;28;20266;-79
2022/10/12 09:38:12;;;;;;;0.10;0.10;;;15.60;99.90;;;;;;5031841;28;20184;-79
2022/10/12 09:40:38;;;;;;;0.10;0.10;;;14.80;99.90;;;;;;5033251;28;20184;-80
2022/10/12 09:43:05;;;;;;;0.10;0.10;;;14.80;99.90;;;;;;5031221;28;20655;-80
2022/10/12 09:45:33;;;;;;;0.10;0.10;;;15.20;99.90;;;;;;5031920;28;20242;-80
2022/10/12 09:48:21;;;;;;;0.07;0.07;;;15.60;99.90;;;;;;5034260;28;20181;-80
2022/10/12 09:51:02;;;;;;;0.10;0.10;;;15.60;99.90;;;;;;5034559;28;20192;-80
2022/10/12 09:53:40;;;;;;;0.10;0.10;;;15.80;99.90;;;;;;5034019;28;20185;-80
2022/10/12 09:56:29;;;;;;;0.10;0.10;;;15.30;99.90;;;;;;5049179;28;20211;-80
2022/10/12 09:59:04;;;;;;;0.10;0.10;;;15.80;99.90;;;;;;5037365;28;20208;-80
2022/10/12 10:01:33;;;;;;;0.10;0.10;;;16.10;99.90;;;;;;5038945;28;20209;-80
2022/10/12 10:04:21;;;;;;;0.10;0.10;;;16.20;99.90;;;;;;5038793;28;20681;-80
2022/10/12 10:06:47;;;;;;;0.10;0.10;;;16.60;99.90;;;;;;5036021;28;20177;-81
2022/10/12 10:09:33;;;;;;;0.10;0.10;;;16.60;99.90;;;;;;5034634;28;20220;-80
2022/10/12 10:12:13;;;;;;;0.10;0.10;;;16.80;99.90;;;;;;5034974;28;20186;-80
2022/10/12 10:14:42;;;;;;;0.10;0.10;;;17.10;99.90;;;;;;5035739;28;20860;-80
2022/10/12 10:17:13;;;;;;;0.10;0.10;;;17.40;99.90;;;;;;5035316;28;20520;-80
2022/10/12 10:19:39;;;;;;;0.10;0.10;;;17.50;99.90;;;;;;5036196;28;20201;-80
2022/10/12 10:22:05;;;;;;;0.10;0.10;;;17.60;99.90;;;;;;5035780;28;20190;-80
2022/10/12 10:24:32;;;;;;;0.10;0.10;;;17.70;99.90;;;;;;5038575;28;20204;-81
2022/10/12 10:27:03;;;;;;;0.10;0.10;;;17.90;99.90;;;;;;5036199;28;20197;-80
2022/10/12 10:29:37;;;;;;;0.10;0.10;;;18.00;99.90;;;;;;5037363;28;20205;-80
2022/10/12 10:32:25;;;;;;;0.10;0.10;;;18.10;99.90;;;;;;5034851;28;20200;-80
2022/10/12 10:35:17;;;;;;;0.10;0.10;;;18.00;99.90;;;;;;5034248;28;20204;-80
2022/10/12 10:37:56;;;;;;;0.10;0.10;;;17.60;99.90;;;;;;5034493;28;20205;-81
2022/10/12 10:40:26;;;;;;;0.10;0.10;;;17.70;99.90;;;;;;5036495;28;20788;-81
2022/10/12 10:42:54;;;;;;;0.10;0.10;;;18.00;99.90;;;;;;5051802;28;20213;-81
2022/10/12 10:45:27;;;;;;;0.10;0.10;;;18.10;99.90;;;;;;5034129;28;20178;-81
2022/10/12 10:48:00;;;;;;;0.10;0.10;;;18.10;99.90;;;;;;5033499;28;20276;-80
2022/10/12 10:50:35;;;;;;;0.10;0.10;;;18.20;99.90;;;;;;5032573;28;20232;-81
2022/10/12 10:53:05;;;;;;;0.10;0.10;;;18.20;99.90;;;;;;5032261;28;20593;-80
2022/10/12 10:55:45;;;;;;;0.10;0.10;;;18.30;99.90;;;;;;5034048;28;20198;-81
2022/10/12 10:58:38;;;;;;;0.10;0.10;;;17.40;99.90;;;;;;5034134;28;20181;-80
2022/10/12 11:01:36;;;;;;;0.10;0.10;;;17.70;99.90;;;;;;5033636;28;20225;-81
2022/10/12 11:04:06;;;;;;;0.10;0.10;;;18.10;99.90;;;;;;5034797;28;20281;-80
2022/10/12 11:06:47;;;;;;;0.10;0.10;;;18.10;99.90;;;;;;5033791;28;20174;-80
2022/10/12 11:09:40;;;;;;;0.10;0.10;;;17.50;99.90;;;;;;5033387;28;20228;-80
2022/10/12 11:12:22;;;;;;;0.67;0.63;;;17.20;99.90;;;;;;5036396;28;20174;-81
2022/10/12 11:14:52;;;;;;;0.10;0.10;;;17.90;99.90;;;;;;5036638;28;20198;-80
2022/10/12 11:17:24;;;;;;;0.10;0.10;;;18.00;99.90;;;;;;5034263;28;20178;-81
2022/10/12 11:20:10;;;;;;;0.10;0.10;;;17.70;99.90;;;;;;5033655;28;20201;-81
2022/10/12 11:22:49;;;;;;;0.10;0.10;;;17.90;99.90;;;;;;5034800;28;20540;-81
2022/10/12 11:25:22;;;;;;;0.10;0.10;;;18.10;99.90;;;;;;5032143;28;20228;-81
2022/10/12 11:27:49;;;;;;;0.10;0.10;;;17.80;99.90;;;;;;5032502;28;20186;-80
2022/10/12 11:30:21;;;;;;;0.10;0.10;;;17.60;99.90;;;;;;5036297;28;20197;-81
2022/10/12 11:32:51;;;;;;;0.10;0.10;;;18.00;99.90;;;;;;5033532;28;20723;-81
2022/10/12 11:35:51;;;;;;;0.10;0.10;;;18.20;99.90;;;;;;5032534;28;20208;-80
2022/10/12 11:38:29;;;;;;;0.10;0.10;;;18.30;99.90;;;;;;5011218;28;20190;-80
2022/10/12 11:41:05;;;;;;;0.10;0.10;;;18.60;99.90;;;;;;5033218;28;20178;-81
2022/10/12 11:43:37;;;;;;;0.10;0.10;;;18.20;99.90;;;;;;5033956;28;20313;-80
2022/10/12 11:46:07;;;;;;;0.03;0.03;;;18.60;99.90;;;;;;5031573;28;20201;-81
2022/10/12 11:48:54;;;;;;;0.10;0.10;;;18.50;99.90;;;;;;5034612;28;20193;-80
2022/10/12 11:51:19;;;;;;;0.10;0.10;;;17.80;99.90;;;;;;5033769;28;20269;-81
2022/10/12 11:53:51;;;;;;;0.10;0.10;;;17.90;99.90;;;;;;5034208;28;20186;-81
2022/10/12 11:56:22;;;;;;;0.10;0.10;;;18.50;99.90;;;;;;5032734;28;20385;-80
2022/10/12 11:58:53;;;;;;;0.10;0.10;;;18.70;99.90;;;;;;5027216;28;20289;-80
2022/10/12 12:01:46;;;;;;;0.10;0.10;;;19.00;99.90;;;;;;5031545;28;20174;-81
2022/10/12 12:04:31;;;;;;;0.10;0.10;;;19.00;99.90;;;;;;5027254;28;20209;-79
2022/10/12 12:07:02;;;;;;;0.10;0.10;;;19.10;99.90;;;;;;5027126;28;20177;-79
2022/10/12 12:09:40;;;;;;;0.10;0.10;;;19.20;99.90;;;;;;5028237;28;20672;-79
2022/10/12 12:12:20;;;;;;;0.10;0.10;;;18.40;99.90;;;;;;5029858;28;20182;-82
2022/10/12 12:14:51;;;;;;;0.10;0.10;;;18.70;99.90;;;;;;5025903;28;20203;-81
2022/10/12 12:17:22;;;;;;;0.10;0.10;;;19.10;99.90;;;;;;5029621;28;21634;-80
2022/10/12 12:19:53;;;;;;;0.10;0.10;;;19.40;99.90;;;;;;5031098;28;20228;-80
2022/10/12 12:22:22;;;;;;;0.10;0.10;;;19.10;99.90;;;;;;5031487;28;20182;-81
2022/10/12 12:24:57;;;;;;;0.10;0.10;;;19.50;99.90;;;;;;5029701;28;20184;-80
2022/10/12 12:27:26;;;;;;;0.10;0.10;;;19.70;99.90;;;;;;5031753;28;20193;-80
2022/10/12 12:29:53;;;;;;;0.10;0.10;;;19.80;99.90;;;;;;5030451;28;20202;-81
2022/10/12 12:32:19;;;;;;;0.10;0.10;;;19.60;99.90;;;;;;5030181;28;20224;-81
2022/10/12 12:34:56;;;;;;;0.10;0.10;;;19.70;99.90;;;;;;5027963;28;20587;-81
2022/10/12 12:37:27;;;;;;;0.10;0.10;;;19.70;99.90;;;;;;5031850;28;20212;-80
2022/10/12 12:39:56;;;;;;;0.10;0.10;;;19.80;99.90;;;;;;5031544;28;20277;-80
2022/10/12 12:42:31;;;;;;;0.10;0.10;;;19.30;99.90;;;;;;5032447;28;20206;-80
2022/10/12 12:45:17;;;;;;;0.10;0.10;;;19.40;99.90;;;;;;5030565;28;20685;-80
2022/10/12 12:47:42;;;;;;;0.10;0.10;;;19.50;99.90;;;;;;5033729;28;20227;-80
2022/10/12 12:50:32;;;;;;;0.10;0.10;;;19.60;99.90;;;;;;5027857;28;20329;-80
2022/10/12 12:53:19;;;;;;;0.10;0.10;;;19.50;99.90;;;;;;5030307;28;20877;-80
2022/10/12 12:56:04;;;;;;;0.10;0.10;;;19.20;99.90;;;;;;5029277;28;20748;-80
2022/10/12 12:58:51;;;;;;;0.10;0.10;;;19.10;99.90;;;;;;5032364;28;20277;-81
2022/10/12 13:01:23;;;;;;;0.10;0.10;;;19.00;99.90;;;;;;5029844;28;20202;-80
2022/10/12 13:04:23;;;;;;;0.10;0.10;;;18.90;99.90;;;;;;5031547;28;20279;-80
2022/10/12 13:07:23;;;;;;;0.10;0.10;;;19.00;99.90;;;;;;5030445;28;20196;-80
2022/10/12 13:10:23;;;;;;;0.10;0.10;;;19.10;99.90;;;;;;5029714;28;20279;-80
2022/10/12 13:13:27;;;;;;;0.10;0.10;;;19.30;99.90;;;;;;5032903;28;20206;-80